Time;durP1;ratioP1;P1;durP2;ratioP2;P2;SDS_P1;SDS_P2;PMS_P1;PMS_P2;Temp;Humidity;BMP_temperature;BMP_pressure;BME280_temperature;BME280_humidity;BME280_pressure;Samples;Min_cycle;Max_cycle;Signal;HPM_P1;HPM_P2
2022/12/09 00:00:14;;;;;;;23.53;17.17;;;-1.80;99.90;;;;;;5045119;28;20486;-51
2022/12/09 00:02:40;;;;;;;18.63;15.17;;;-1.80;99.90;;;;;;5048228;28;20946;-51
2022/12/09 00:05:09;;;;;;;15.07;13.47;;;-1.80;99.90;;;;;;5046084;28;20466;-51
2022/12/09 00:07:36;;;;;;;21.27;14.63;;;-1.80;99.90;;;;;;5045286;28;20470;-52
2022/12/09 00:10:03;;;;;;;16.40;14.50;;;-1.90;99.90;;;;;;5035583;28;20467;-51
2022/12/09 00:12:30;;;;;;;19.87;15.30;;;-1.90;99.90;;;;;;5046171;28;20526;-52
2022/12/09 00:14:56;;;;;;;19.80;14.70;;;-1.90;99.90;;;;;;5046650;28;20513;-51
2022/12/09 00:17:23;;;;;;;16.57;13.80;;;-1.90;99.90;;;;;;5047690;28;20466;-51
2022/12/09 00:19:50;;;;;;;19.50;14.40;;;-1.90;99.90;;;;;;5036021;28;20482;-51
2022/12/09 00:22:18;;;;;;;18.47;15.83;;;-1.90;99.90;;;;;;5044147;28;20458;-51
2022/12/09 00:24:44;;;;;;;19.13;16.17;;;-1.90;99.90;;;;;;5041720;28;20458;-51
2022/12/09 00:27:11;;;;;;;20.60;16.60;;;-2.00;99.90;;;;;;5039507;28;20462;-52
2022/12/09 00:29:37;;;;;;;22.67;18.17;;;-2.00;99.90;;;;;;5045504;28;20864;-51
2022/12/09 00:32:04;;;;;;;29.20;19.83;;;-2.00;99.90;;;;;;5044649;28;20539;-51
2022/12/09 00:34:31;;;;;;;19.03;15.80;;;-2.00;99.90;;;;;;5044708;28;20557;-51
2022/12/09 00:36:58;;;;;;;18.73;15.17;;;-2.10;99.90;;;;;;5047001;28;20466;-51
2022/12/09 00:39:26;;;;;;;21.87;16.30;;;-2.10;99.90;;;;;;5040352;28;20520;-51
2022/12/09 00:41:52;;;;;;;17.03;14.70;;;-2.10;99.90;;;;;;5038595;28;20466;-51
2022/12/09 00:44:19;;;;;;;14.50;13.00;;;-2.20;99.90;;;;;;5055562;28;20466;-51
2022/12/09 00:46:46;;;;;;;13.87;12.37;;;-2.20;99.90;;;;;;5053341;28;20906;-51
2022/12/09 00:49:12;;;;;;;22.47;12.63;;;-2.20;99.90;;;;;;5049982;28;20842;-51
2022/12/09 00:51:39;;;;;;;18.03;14.03;;;-2.20;99.90;;;;;;5054527;28;20477;-51
2022/12/09 00:54:06;;;;;;;16.10;13.90;;;-2.20;99.90;;;;;;5042039;28;20699;-52
2022/12/09 00:56:34;;;;;;;15.80;12.80;;;-2.30;99.90;;;;;;5052587;28;20462;-51
2022/12/09 00:59:00;;;;;;;14.53;12.67;;;-2.30;99.90;;;;;;5047882;28;20461;-50
2022/12/09 01:01:27;;;;;;;16.33;13.70;;;-2.30;99.90;;;;;;5050898;28;20994;-51
2022/12/09 01:03:54;;;;;;;15.80;13.90;;;-2.30;99.90;;;;;;5053088;28;20449;-51
2022/12/09 01:06:23;;;;;;;16.33;14.17;;;-2.30;99.90;;;;;;5051608;28;20461;-51
2022/12/09 01:08:50;;;;;;;16.03;13.30;;;-2.20;99.90;;;;;;5051853;28;20839;-51
2022/12/09 01:11:20;;;;;;;15.13;13.47;;;-2.20;99.90;;;;;;5049557;28;20482;-52
2022/12/09 01:13:49;;;;;;;15.27;13.43;;;-2.10;99.90;;;;;;5048556;28;20453;-51
2022/12/09 01:16:18;;;;;;;23.23;15.00;;;-2.10;99.90;;;;;;5045381;28;20467;-50
2022/12/09 01:18:45;;;;;;;20.70;15.67;;;-2.10;99.90;;;;;;5045936;28;20465;-51
2022/12/09 01:21:11;;;;;;;21.30;17.13;;;-2.00;99.90;;;;;;5049861;28;20541;-50
2022/12/09 01:23:38;;;;;;;16.70;14.27;;;-1.90;99.90;;;;;;5045811;28;20461;-51
2022/12/09 01:26:06;;;;;;;20.87;15.03;;;-1.90;99.90;;;;;;5043214;28;20466;-51
2022/12/09 01:28:35;;;;;;;16.93;12.23;;;-1.80;99.90;;;;;;5044603;28;20457;-52
2022/12/09 01:31:07;;;;;;;18.33;15.90;;;-1.80;99.90;;;;;;5041701;28;20527;-51
2022/12/09 01:33:33;;;;;;;17.63;14.70;;;-1.80;99.90;;;;;;5047064;28;20457;-51
2022/12/09 01:36:00;;;;;;;17.27;14.07;;;-1.80;99.90;;;;;;5048161;28;20947;-51
2022/12/09 01:38:27;;;;;;;21.47;15.70;;;-1.80;99.90;;;;;;5044615;28;20884;-51
2022/12/09 01:40:53;;;;;;;25.50;15.37;;;-1.80;99.90;;;;;;5050883;28;20535;-51
2022/12/09 01:43:20;;;;;;;18.10;15.37;;;-1.70;99.90;;;;;;5052454;28;21028;-51
2022/12/09 01:45:48;;;;;;;20.73;14.87;;;-1.60;99.90;;;;;;5053354;28;20515;-51
2022/12/09 01:48:18;;;;;;;22.17;16.60;;;-1.50;99.90;;;;;;5052925;28;20453;-51
2022/12/09 01:50:48;;;;;;;22.20;16.77;;;-1.60;99.90;;;;;;5052927;28;20477;-51
2022/12/09 01:53:18;;;;;;;23.10;16.00;;;-1.50;99.90;;;;;;5053336;28;20462;-52
2022/12/09 01:55:45;;;;;;;18.73;15.23;;;-1.40;99.90;;;;;;5049498;28;20951;-52
2022/12/09 01:58:13;;;;;;;20.20;16.63;;;-1.40;99.90;;;;;;5042558;28;20447;-53
2022/12/09 02:00:40;;;;;;;23.63;15.93;;;-1.30;99.90;;;;;;5042498;28;20539;-54
2022/12/09 02:03:07;;;;;;;17.67;15.00;;;-1.30;99.90;;;;;;5050794;28;20450;-54
2022/12/09 02:05:36;;;;;;;17.93;14.97;;;-1.30;99.90;;;;;;5051499;28;20963;-53
2022/12/09 02:08:06;;;;;;;18.80;16.80;;;-1.30;99.90;;;;;;5053662;28;20484;-55
2022/12/09 02:10:36;;;;;;;17.90;14.77;;;-1.30;99.90;;;;;;5044557;28;20482;-56
2022/12/09 02:13:13;;;;;;;19.77;15.47;;;-1.30;99.90;;;;;;5042218;28;20520;-55
2022/12/09 02:15:44;;;;;;;21.27;15.43;;;-1.20;99.90;;;;;;5050705;28;20999;-55
2022/12/09 02:18:18;;;;;;;21.53;14.90;;;-1.20;99.90;;;;;;5048025;28;20466;-54
2022/12/09 02:20:51;;;;;;;18.67;14.67;;;-1.20;99.90;;;;;;5048771;28;21240;-54
2022/12/09 02:23:22;;;;;;;15.73;13.60;;;-1.20;99.90;;;;;;5041144;28;20478;-53
2022/12/09 02:25:52;;;;;;;18.80;14.33;;;-1.20;99.90;;;;;;5043980;28;20461;-54
2022/12/09 02:28:48;;;;;;;17.10;14.73;;;-1.20;99.90;;;;;;5052010;28;20462;-54
2022/12/09 02:31:36;;;;;;;20.63;15.10;;;-1.20;99.90;;;;;;5044223;28;20474;-54
2022/12/09 02:34:15;;;;;;;17.70;14.70;;;-1.20;99.90;;;;;;5048519;28;20466;-53
2022/12/09 02:36:51;;;;;;;15.27;13.40;;;-1.20;99.90;;;;;;5044586;28;20474;-54
2022/12/09 02:39:22;;;;;;;16.37;14.47;;;-1.20;99.90;;;;;;5043406;28;20821;-53
2022/12/09 02:41:50;;;;;;;15.23;13.63;;;-1.20;99.90;;;;;;5049293;28;20485;-54
2022/12/09 02:44:20;;;;;;;15.70;13.80;;;-1.20;99.90;;;;;;5045827;28;20462;-54
2022/12/09 02:46:49;;;;;;;19.40;15.20;;;-1.20;99.90;;;;;;5040144;28;20877;-55
2022/12/09 02:49:19;;;;;;;21.53;16.17;;;-1.10;99.90;;;;;;5043197;28;20885;-55
2022/12/09 02:51:47;;;;;;;16.40;14.60;;;-1.10;99.90;;;;;;5050204;28;20470;-55
2022/12/09 02:54:17;;;;;;;15.33;13.43;;;-1.10;99.90;;;;;;5049141;28;20515;-55
2022/12/09 02:56:50;;;;;;;14.70;12.73;;;-1.10;99.90;;;;;;5039099;28;20467;-55
2022/12/09 02:59:16;;;;;;;14.30;12.70;;;-1.10;99.90;;;;;;5047740;28;20462;-55
2022/12/09 03:01:48;;;;;;;19.10;15.57;;;-1.10;99.90;;;;;;5044525;28;20485;-54
2022/12/09 03:04:20;;;;;;;16.77;14.40;;;-1.10;99.90;;;;;;5050196;28;20884;-54
2022/12/09 03:06:51;;;;;;;15.30;13.47;;;-1.10;99.90;;;;;;5042953;28;20536;-54
2022/12/09 03:09:20;;;;;;;17.60;14.83;;;-1.20;99.90;;;;;;5038596;28;20497;-53
2022/12/09 03:11:49;;;;;;;16.00;13.93;;;-1.20;99.90;;;;;;5042709;28;20489;-54
2022/12/09 03:14:18;;;;;;;15.80;13.33;;;-1.20;99.90;;;;;;5042496;28;20465;-53
2022/12/09 03:16:50;;;;;;;18.00;13.53;;;-1.20;99.90;;;;;;5042295;28;20458;-53
2022/12/09 03:19:25;;;;;;;16.93;13.33;;;-1.20;99.90;;;;;;5046809;28;20458;-55
2022/12/09 03:21:56;;;;;;;16.67;13.77;;;-1.20;99.90;;;;;;5040537;28;20481;-55
2022/12/09 03:24:27;;;;;;;19.27;14.53;;;-1.10;99.90;;;;;;5051765;28;20462;-54
2022/12/09 03:26:54;;;;;;;16.00;14.03;;;-1.10;99.90;;;;;;5050076;28;20956;-53
2022/12/09 03:29:25;;;;;;;15.00;12.97;;;-1.00;99.90;;;;;;5038774;28;20453;-54
2022/12/09 03:31:54;;;;;;;18.37;13.50;;;-1.00;99.90;;;;;;5051159;28;20529;-55
2022/12/09 03:34:28;;;;;;;15.03;13.53;;;-0.90;99.90;;;;;;5039705;28;20463;-55
2022/12/09 03:36:55;;;;;;;15.23;13.37;;;-0.90;99.90;;;;;;5043727;28;20520;-55
2022/12/09 03:39:25;;;;;;;14.30;11.50;;;-0.90;99.90;;;;;;5044071;28;20453;-53
2022/12/09 03:41:55;;;;;;;14.30;12.17;;;-0.80;99.90;;;;;;5054215;28;20485;-53
2022/12/09 03:44:29;;;;;;;13.63;12.23;;;-0.80;99.90;;;;;;5048358;28;21036;-54
2022/12/09 03:46:56;;;;;;;14.37;12.83;;;-0.90;99.90;;;;;;5038752;28;20814;-54
2022/12/09 03:49:24;;;;;;;16.57;12.97;;;-0.90;99.90;;;;;;5049438;28;20519;-54
2022/12/09 03:51:56;;;;;;;14.80;12.97;;;-0.90;99.90;;;;;;5051226;28;20537;-54
2022/12/09 03:54:26;;;;;;;14.40;12.60;;;-0.90;99.90;;;;;;5048907;28;20470;-55
2022/12/09 03:56:56;;;;;;;15.67;12.73;;;-0.90;99.90;;;;;;5048869;28;20462;-54
2022/12/09 03:59:25;;;;;;;14.83;12.87;;;-0.80;99.90;;;;;;5049911;28;20507;-54
2022/12/09 04:01:52;;;;;;;13.63;11.27;;;-0.90;99.90;;;;;;5055787;28;20909;-55
2022/12/09 04:04:19;;;;;;;13.83;12.43;;;-0.80;99.90;;;;;;5050718;28;20898;-53
2022/12/09 04:06:49;;;;;;;13.07;11.60;;;-0.90;99.90;;;;;;5050375;28;20882;-53
2022/12/09 04:09:16;;;;;;;13.27;11.90;;;-0.90;99.90;;;;;;5047710;28;20467;-54
2022/12/09 04:11:42;;;;;;;17.93;11.47;;;-0.90;99.90;;;;;;5044638;28;20544;-53
2022/12/09 04:14:09;;;;;;;14.40;12.10;;;-0.90;99.90;;;;;;5040304;28;20438;-54
2022/12/09 04:16:35;;;;;;;12.90;11.60;;;-0.80;99.90;;;;;;5035751;28;20467;-53
2022/12/09 04:19:02;;;;;;;16.33;12.73;;;-0.90;99.90;;;;;;5049589;28;20446;-54
2022/12/09 04:21:29;;;;;;;13.80;12.30;;;-1.00;99.90;;;;;;5049480;28;20535;-54
2022/12/09 04:23:57;;;;;;;13.97;11.60;;;-1.00;99.90;;;;;;5037793;28;20453;-54
2022/12/09 04:26:23;;;;;;;15.20;12.00;;;-1.10;99.90;;;;;;5047180;28;20520;-54
2022/12/09 04:28:50;;;;;;;16.03;12.00;;;-1.20;99.90;;;;;;5033945;28;20885;-54
2022/12/09 04:31:18;;;;;;;12.93;11.33;;;-1.30;99.90;;;;;;5031075;28;20459;-54
2022/12/09 04:33:45;;;;;;;13.37;11.53;;;-1.30;99.90;;;;;;5045414;28;20531;-54
2022/12/09 04:36:14;;;;;;;12.90;10.33;;;-1.30;99.90;;;;;;5045107;28;20519;-54
2022/12/09 04:38:42;;;;;;;12.27;10.40;;;-1.30;99.90;;;;;;5049657;28;20470;-53
2022/12/09 04:41:10;;;;;;;13.50;11.27;;;-1.30;99.90;;;;;;5049111;28;20543;-55
2022/12/09 04:43:37;;;;;;;14.63;10.67;;;-1.30;99.90;;;;;;5049879;28;20526;-55
2022/12/09 04:46:10;;;;;;;11.73;10.63;;;-1.30;99.90;;;;;;5054044;28;20461;-55
2022/12/09 04:48:37;;;;;;;10.63;9.40;;;-1.40;99.90;;;;;;5040314;28;20929;-54
2022/12/09 04:51:04;;;;;;;13.97;11.53;;;-1.30;99.90;;;;;;5050487;28;20493;-54
2022/12/09 04:53:30;;;;;;;14.43;11.27;;;-1.30;99.90;;;;;;5044754;28;20470;-54
2022/12/09 04:56:00;;;;;;;12.67;11.20;;;-1.40;99.90;;;;;;5053499;28;21013;-54
2022/12/09 04:58:28;;;;;;;13.90;9.93;;;-1.40;99.90;;;;;;5047112;28;20471;-54
2022/12/09 05:00:55;;;;;;;14.70;11.23;;;-1.40;99.90;;;;;;5048804;28;20971;-54
2022/12/09 05:03:22;;;;;;;14.43;12.60;;;-1.40;99.90;;;;;;5051420;28;20549;-54
2022/12/09 05:05:49;;;;;;;12.87;10.70;;;-1.40;99.90;;;;;;5052999;28;20465;-54
2022/12/09 05:08:16;;;;;;;13.17;11.17;;;-1.40;99.90;;;;;;5042703;28;20860;-54
2022/12/09 05:10:45;;;;;;;12.10;10.90;;;-1.40;99.90;;;;;;5034763;28;20474;-53
2022/12/09 05:13:12;;;;;;;15.20;11.73;;;-1.50;99.90;;;;;;5049793;28;20507;-53
2022/12/09 05:15:40;;;;;;;12.80;11.50;;;-1.50;99.90;;;;;;5039575;28;20873;-55
2022/12/09 05:18:07;;;;;;;14.87;12.40;;;-1.60;99.90;;;;;;5046031;28;20461;-54
2022/12/09 05:20:34;;;;;;;13.13;11.77;;;-1.60;99.90;;;;;;5047773;28;20539;-54
2022/12/09 05:23:00;;;;;;;11.13;10.03;;;-1.60;99.90;;;;;;5050338;28;20528;-55
2022/12/09 05:25:27;;;;;;;14.57;10.67;;;-1.60;99.90;;;;;;5049636;28;20600;-54
2022/12/09 05:27:54;;;;;;;32.57;24.43;;;-1.70;99.90;;;;;;5041724;28;20511;-55
2022/12/09 05:30:20;;;;;;;33.53;24.90;;;-1.70;99.90;;;;;;5044519;28;20645;-53
2022/12/09 05:32:48;;;;;;;30.30;21.70;;;-1.70;99.90;;;;;;5044782;28;20874;-54
2022/12/09 05:35:15;;;;;;;31.27;21.83;;;-1.80;99.90;;;;;;5051128;28;20466;-54
2022/12/09 05:37:41;;;;;;;26.80;19.37;;;-1.80;99.90;;;;;;5043870;28;20458;-55
2022/12/09 05:40:09;;;;;;;18.17;14.63;;;-1.80;99.90;;;;;;5049855;28;20467;-55
2022/12/09 05:42:36;;;;;;;19.50;15.17;;;-1.90;99.90;;;;;;5051539;28;20487;-55
2022/12/09 05:45:03;;;;;;;20.60;15.33;;;-2.00;99.90;;;;;;5049629;28;20454;-54
2022/12/09 05:47:29;;;;;;;19.17;15.77;;;-2.00;99.90;;;;;;5039757;28;20467;-54
2022/12/09 05:49:57;;;;;;;19.47;15.00;;;-2.00;99.90;;;;;;5050110;28;20520;-55
2022/12/09 05:52:24;;;;;;;17.40;14.43;;;-2.10;99.90;;;;;;5046610;28;20940;-55
2022/12/09 05:54:50;;;;;;;15.90;14.20;;;-2.00;99.90;;;;;;5042506;28;20462;-55
2022/12/09 05:57:17;;;;;;;18.17;14.03;;;-2.00;99.90;;;;;;5050229;28;20466;-55
2022/12/09 05:59:44;;;;;;;20.30;16.20;;;-2.10;99.90;;;;;;5047643;28;20951;-55
2022/12/09 06:02:10;;;;;;;21.37;16.33;;;-2.10;99.90;;;;;;5045734;28;20551;-55
2022/12/09 06:04:37;;;;;;;23.87;18.50;;;-2.00;99.90;;;;;;5047853;28;21001;-54
2022/12/09 06:07:05;;;;;;;24.57;18.77;;;-2.10;99.90;;;;;;5046139;28;20466;-55
2022/12/09 06:09:32;;;;;;;23.93;20.17;;;-2.00;99.90;;;;;;5044567;28;20889;-54
2022/12/09 06:11:59;;;;;;;21.03;17.43;;;-2.10;99.90;;;;;;5046512;28;20995;-56
2022/12/09 06:14:25;;;;;;;19.70;16.37;;;-2.10;99.90;;;;;;5040265;28;20458;-54
2022/12/09 06:16:52;;;;;;;19.87;17.50;;;-2.10;99.90;;;;;;5044795;28;20462;-54
2022/12/09 06:19:19;;;;;;;26.17;19.37;;;-2.10;99.90;;;;;;5046878;28;20466;-54
2022/12/09 06:21:45;;;;;;;19.27;16.03;;;-2.20;99.90;;;;;;5047052;28;20512;-55
2022/12/09 06:24:13;;;;;;;20.83;16.43;;;-2.20;99.90;;;;;;5046717;28;20549;-55
2022/12/09 06:26:40;;;;;;;19.03;16.20;;;-2.10;99.90;;;;;;5045272;28;20956;-55
2022/12/09 06:29:07;;;;;;;15.80;14.10;;;-2.10;99.90;;;;;;5047867;28;20491;-53
2022/12/09 06:31:33;;;;;;;15.90;13.90;;;-2.10;99.90;;;;;;5039987;28;20506;-54
2022/12/09 06:34:00;;;;;;;18.40;15.63;;;-2.20;99.90;;;;;;5046895;28;20528;-54
2022/12/09 06:36:28;;;;;;;18.10;15.30;;;-2.30;99.90;;;;;;5057561;28;20539;-55
2022/12/09 06:38:55;;;;;;;18.90;14.40;;;-2.30;99.90;;;;;;5049520;28;20466;-54
2022/12/09 06:41:24;;;;;;;18.20;15.20;;;-2.30;99.90;;;;;;5042361;28;21083;-54
2022/12/09 06:43:51;;;;;;;19.37;16.60;;;-2.20;99.90;;;;;;5044523;28;20465;-55
2022/12/09 06:46:21;;;;;;;16.53;14.50;;;-2.20;99.90;;;;;;5047853;28;20943;-54
2022/12/09 06:48:48;;;;;;;14.93;13.20;;;-2.10;99.90;;;;;;5037821;28;20465;-54
2022/12/09 06:51:16;;;;;;;13.70;12.00;;;-2.10;99.90;;;;;;5046197;28;20470;-54
2022/12/09 06:53:43;;;;;;;16.80;13.30;;;-1.90;99.90;;;;;;5045265;28;20889;-54
2022/12/09 06:56:11;;;;;;;13.80;11.80;;;-1.80;99.90;;;;;;5046679;28;20458;-54
2022/12/09 06:58:39;;;;;;;13.10;11.73;;;-1.80;99.90;;;;;;5040773;28;21005;-54
2022/12/09 07:01:10;;;;;;;13.70;11.57;;;-1.70;99.90;;;;;;5048304;28;20484;-53
2022/12/09 07:03:36;;;;;;;15.17;11.83;;;-1.70;99.90;;;;;;5046495;28;20477;-55
2022/12/09 07:06:03;;;;;;;12.43;11.10;;;-1.70;99.90;;;;;;5039978;28;20462;-56
2022/12/09 07:08:30;;;;;;;16.20;12.20;;;-1.60;99.90;;;;;;5038684;28;21003;-53
2022/12/09 07:10:56;;;;;;;13.93;11.37;;;-1.50;99.90;;;;;;5043465;28;20493;-54
2022/12/09 07:13:23;;;;;;;12.23;10.93;;;-1.50;99.90;;;;;;5045767;28;20501;-54
2022/12/09 07:15:51;;;;;;;12.80;11.43;;;-1.40;99.90;;;;;;5044959;28;20457;-53
2022/12/09 07:18:18;;;;;;;12.20;10.80;;;-1.40;99.90;;;;;;5048038;28;20466;-53
2022/12/09 07:20:44;;;;;;;14.23;11.70;;;-1.40;99.90;;;;;;5047843;28;20540;-55
2022/12/09 07:23:12;;;;;;;13.27;10.77;;;-1.30;99.90;;;;;;5046754;28;20478;-53
2022/12/09 07:25:39;;;;;;;13.73;10.90;;;-1.20;99.90;;;;;;5042352;28;20468;-54
2022/12/09 07:28:05;;;;;;;12.97;11.43;;;-1.20;99.90;;;;;;5040676;28;21221;-54
2022/12/09 07:30:32;;;;;;;14.70;11.40;;;-1.30;99.90;;;;;;5043790;28;20994;-54
2022/12/09 07:33:00;;;;;;;14.80;12.60;;;-1.20;99.90;;;;;;5041734;28;20453;-53
2022/12/09 07:35:26;;;;;;;15.30;12.50;;;-1.20;99.90;;;;;;5049585;28;20888;-54
2022/12/09 07:37:54;;;;;;;15.33;10.97;;;-1.10;99.90;;;;;;5045301;28;20461;-54
2022/12/09 07:40:21;;;;;;;15.00;12.53;;;-1.10;99.90;;;;;;5039087;28;20570;-55
2022/12/09 07:42:48;;;;;;;13.73;11.63;;;-1.10;99.90;;;;;;5043241;28;21006;-54
2022/12/09 07:45:15;;;;;;;21.43;14.40;;;-1.10;99.90;;;;;;5045945;28;20466;-55
2022/12/09 07:47:41;;;;;;;31.47;16.17;;;-1.00;99.90;;;;;;5044352;28;20531;-52
2022/12/09 07:50:10;;;;;;;23.63;14.80;;;-1.00;99.90;;;;;;5040541;28;21006;-51
2022/12/09 07:52:37;;;;;;;27.77;15.47;;;-1.00;99.90;;;;;;5039519;28;20457;-50
2022/12/09 07:55:04;;;;;;;25.27;14.50;;;-0.90;99.90;;;;;;5042714;28;20458;-52
2022/12/09 07:57:30;;;;;;;27.93;14.83;;;-0.80;99.90;;;;;;5040367;28;21513;-52
2022/12/09 07:59:57;;;;;;;29.17;16.87;;;-0.80;99.90;;;;;;5045235;28;20471;-52
2022/12/09 08:02:24;;;;;;;33.40;17.60;;;-0.70;99.90;;;;;;5041695;28;20452;-52
2022/12/09 08:04:50;;;;;;;38.27;21.33;;;-0.70;99.90;;;;;;5046179;28;20693;-52
2022/12/09 08:07:19;;;;;;;33.43;19.30;;;-0.70;99.90;;;;;;5037280;28;20845;-52
2022/12/09 08:09:45;;;;;;;25.07;16.20;;;-0.60;99.90;;;;;;5044390;28;20461;-52
2022/12/09 08:12:12;;;;;;;33.83;16.43;;;-0.60;99.90;;;;;;5045221;28;20883;-50
2022/12/09 08:14:39;;;;;;;26.77;16.70;;;-0.60;99.90;;;;;;5041664;28;20458;-51
2022/12/09 08:17:05;;;;;;;33.17;17.00;;;-0.50;99.90;;;;;;5042254;28;20863;-51
2022/12/09 08:19:32;;;;;;;28.97;17.40;;;-0.50;99.90;;;;;;5041137;28;20462;-51
2022/12/09 08:21:59;;;;;;;25.77;17.00;;;-0.40;99.90;;;;;;5047584;28;20994;-50
2022/12/09 08:24:26;;;;;;;36.23;20.37;;;-0.40;99.90;;;;;;5044440;28;20462;-50
2022/12/09 08:26:53;;;;;;;28.53;18.73;;;-0.30;99.90;;;;;;5044950;28;20458;-51
2022/12/09 08:29:20;;;;;;;29.17;17.60;;;-0.20;99.90;;;;;;5038089;28;20458;-52
2022/12/09 08:31:47;;;;;;;32.87;18.60;;;-0.20;99.90;;;;;;5046477;28;20489;-51
2022/12/09 08:34:14;;;;;;;39.87;20.30;;;-0.10;99.90;;;;;;5045638;28;20902;-51
2022/12/09 08:36:41;;;;;;;40.83;22.10;;;-0.10;99.90;;;;;;5053570;28;21024;-51
2022/12/09 08:39:09;;;;;;;46.80;24.30;;;-0.20;99.90;;;;;;5032474;28;20546;-52
2022/12/09 08:41:38;;;;;;;34.37;20.70;;;-0.20;99.90;;;;;;5045046;28;20534;-51
2022/12/09 08:44:07;;;;;;;36.20;20.93;;;-0.10;99.90;;;;;;5046785;28;20528;-52
2022/12/09 08:46:34;;;;;;;33.50;19.90;;;-0.10;99.90;;;;;;5047265;28;20463;-52
2022/12/09 08:49:01;;;;;;;32.30;20.63;;;0.00;99.90;;;;;;5038835;28;20516;-50
2022/12/09 08:51:29;;;;;;;43.67;17.87;;;0.00;99.90;;;;;;5045939;28;20471;-50
2022/12/09 08:53:56;;;;;;;72.70;43.77;;;0.00;99.90;;;;;;5043246;28;20454;-52
2022/12/09 08:56:23;;;;;;;34.60;20.53;;;0.00;99.90;;;;;;5046334;28;20454;-51
2022/12/09 08:58:51;;;;;;;45.47;18.50;;;0.10;99.90;;;;;;5045713;28;20523;-50
2022/12/09 09:01:19;;;;;;;34.97;19.63;;;0.10;99.90;;;;;;5045321;28;20482;-51
2022/12/09 09:03:46;;;;;;;30.90;19.40;;;0.10;99.90;;;;;;5045715;28;20512;-50
2022/12/09 09:06:14;;;;;;;35.50;20.23;;;0.20;99.90;;;;;;5037895;28;20525;-51
2022/12/09 09:08:40;;;;;;;34.53;19.50;;;0.10;99.90;;;;;;5044727;28;20458;-50
2022/12/09 09:11:10;;;;;;;29.37;19.17;;;0.20;99.90;;;;;;5049603;28;21008;-51
2022/12/09 09:13:37;;;;;;;32.80;19.67;;;0.10;99.90;;;;;;5042025;28;20465;-52
2022/12/09 09:16:09;;;;;;;48.80;20.97;;;0.10;99.90;;;;;;5043784;28;20517;-49
2022/12/09 09:18:35;;;;;;;38.77;17.10;;;0.10;99.90;;;;;;5044183;28;20454;-50
2022/12/09 09:21:02;;;;;;;56.83;18.67;;;0.20;99.90;;;;;;5047167;28;20481;-50
2022/12/09 09:23:29;;;;;;;48.50;20.33;;;0.20;99.90;;;;;;5049108;28;20485;-49
2022/12/09 09:25:55;;;;;;;48.33;19.50;;;0.20;99.90;;;;;;5053610;28;20487;-49
2022/12/09 09:28:22;;;;;;;40.03;18.27;;;0.30;99.90;;;;;;5045601;28;20485;-51
2022/12/09 09:30:49;;;;;;;43.83;18.77;;;0.30;99.90;;;;;;5040208;28;20482;-50
2022/12/09 09:33:17;;;;;;;33.47;19.80;;;0.20;99.90;;;;;;5045767;28;20549;-51
2022/12/09 09:35:43;;;;;;;42.33;20.13;;;0.30;99.90;;;;;;5039975;28;21021;-52
2022/12/09 09:38:10;;;;;;;38.13;19.67;;;0.40;99.90;;;;;;5045371;28;20454;-51
2022/12/09 09:40:41;;;;;;;51.93;22.03;;;0.40;99.90;;;;;;5046385;28;21148;-51
2022/12/09 09:43:15;;;;;;;49.33;23.70;;;0.40;99.90;;;;;;5042249;28;20489;-51
2022/12/09 09:45:43;;;;;;;62.87;29.57;;;0.40;99.90;;;;;;5043949;28;20450;-49
2022/12/09 09:48:13;;;;;;;59.17;24.13;;;0.40;99.90;;;;;;5053550;28;20499;-51
2022/12/09 09:50:48;;;;;;;48.40;27.27;;;0.40;99.90;;;;;;5050184;28;20539;-51
2022/12/09 09:53:21;;;;;;;54.93;21.77;;;0.30;99.90;;;;;;5043603;28;20824;-50
2022/12/09 09:55:54;;;;;;;38.87;23.33;;;0.40;99.90;;;;;;5039565;28;20450;-50
2022/12/09 09:58:26;;;;;;;53.00;24.20;;;0.50;99.90;;;;;;5046244;28;20467;-50
2022/12/09 10:01:01;;;;;;;40.37;23.20;;;0.40;99.90;;;;;;5044243;28;20482;-50
2022/12/09 10:03:36;;;;;;;47.93;23.00;;;0.40;99.90;;;;;;5046834;28;20987;-50
2022/12/09 10:06:10;;;;;;;43.80;24.43;;;0.40;99.90;;;;;;5050972;28;20457;-50
2022/12/09 10:08:48;;;;;;;63.73;25.40;;;0.40;99.90;;;;;;5045756;28;20496;-49
2022/12/09 10:11:20;;;;;;;45.73;25.20;;;0.50;99.90;;;;;;5049193;28;20550;-54
2022/12/09 10:13:52;;;;;;;94.17;25.27;;;0.50;99.90;;;;;;5039578;28;20454;-54
2022/12/09 10:16:23;;;;;;;47.40;26.73;;;0.50;99.90;;;;;;5041903;28;20816;-54
2022/12/09 10:19:00;;;;;;;51.33;27.50;;;0.50;99.90;;;;;;5047512;28;20481;-54
2022/12/09 10:21:30;;;;;;;49.63;26.87;;;0.40;99.90;;;;;;5044115;28;20488;-55
2022/12/09 10:24:02;;;;;;;53.50;26.67;;;0.40;99.90;;;;;;5046555;28;20515;-54
2022/12/09 10:26:31;;;;;;;55.00;26.63;;;0.40;99.90;;;;;;5042004;28;21172;-54
2022/12/09 10:29:07;;;;;;;56.63;26.80;;;0.50;99.90;;;;;;5041285;28;21169;-54
2022/12/09 10:31:34;;;;;;;49.13;26.63;;;0.50;99.90;;;;;;5044363;28;20568;-54
2022/12/09 10:34:00;;;;;;;53.63;27.10;;;0.50;99.90;;;;;;5044772;28;20488;-54
2022/12/09 10:36:29;;;;;;;52.50;27.07;;;0.50;99.90;;;;;;5039127;28;20458;-54
2022/12/09 10:38:56;;;;;;;61.60;26.43;;;0.50;99.90;;;;;;5043387;28;20516;-53
2022/12/09 10:44:28;;;;;;;48.63;27.97;;;0.50;99.90;;;;;;4978029;28;20479;-54
2022/12/09 10:46:59;;;;;;;52.00;28.07;;;0.50;99.90;;;;;;5048066;28;20469;-54
2022/12/09 10:49:26;;;;;;;50.40;26.17;;;0.60;99.90;;;;;;5045658;28;20466;-54
2022/12/09 10:51:55;;;;;;;47.30;28.07;;;0.70;99.90;;;;;;5047536;28;20478;-53
2022/12/09 10:54:35;;;;;;;45.23;26.00;;;0.60;99.90;;;;;;5052427;28;20462;-54
2022/12/09 10:57:06;;;;;;;54.10;27.17;;;0.70;99.90;;;;;;5047328;28;20454;-54
2022/12/09 10:59:34;;;;;;;46.20;29.47;;;0.70;99.90;;;;;;5046110;28;20542;-53
2022/12/09 11:02:02;;;;;;;45.57;27.27;;;0.70;99.90;;;;;;5044594;28;20512;-54
2022/12/09 11:04:31;;;;;;;41.77;25.70;;;0.80;99.90;;;;;;5045482;28;20473;-54
2022/12/09 11:07:02;;;;;;;48.70;28.00;;;0.80;99.90;;;;;;5045407;28;20458;-54
2022/12/09 11:09:31;;;;;;;42.77;27.50;;;0.80;99.90;;;;;;5036308;28;20458;-54
2022/12/09 11:11:58;;;;;;;41.87;26.70;;;0.80;99.90;;;;;;5035866;28;20482;-55
2022/12/09 11:14:29;;;;;;;46.80;26.33;;;0.70;99.90;;;;;;5046674;28;20458;-55
2022/12/09 11:16:59;;;;;;;45.23;26.33;;;0.80;99.90;;;;;;5046000;28;20575;-55
2022/12/09 11:19:31;;;;;;;38.73;23.87;;;0.80;99.90;;;;;;5044942;28;20458;-55
2022/12/09 11:24:53;;;;;;;42.10;24.70;;;0.70;99.90;;;;;;5081997;27;20597;-55
2022/12/09 11:27:29;;;;;;;45.73;24.40;;;0.80;99.90;;;;;;5068190;28;20452;-55
2022/12/09 11:30:07;;;;;;;36.80;23.47;;;0.90;99.90;;;;;;5065312;28;20877;-54
2022/12/09 11:32:37;;;;;;;40.20;26.00;;;0.90;99.90;;;;;;5059006;28;20465;-55
2022/12/09 11:35:04;;;;;;;42.87;26.50;;;0.80;99.90;;;;;;5076040;28;20502;-54
2022/12/09 11:37:32;;;;;;;40.50;24.57;;;0.80;99.90;;;;;;5068339;28;20453;-55
2022/12/09 11:40:00;;;;;;;40.23;25.80;;;0.80;99.90;;;;;;5065961;28;20457;-54
2022/12/09 11:42:28;;;;;;;41.10;25.47;;;0.80;99.90;;;;;;5066145;28;21030;-54
2022/12/09 11:44:58;;;;;;;40.37;24.23;;;0.80;99.90;;;;;;5062466;28;21555;-54
2022/12/09 11:47:32;;;;;;;43.53;25.37;;;0.80;99.90;;;;;;5064780;28;20495;-54
2022/12/09 11:50:05;;;;;;;46.70;24.87;;;0.80;99.90;;;;;;5058358;28;20534;-55
2022/12/09 11:52:32;;;;;;;51.90;30.27;;;0.80;99.90;;;;;;5066615;28;20522;-55
2022/12/09 11:55:18;;;;;;;42.43;24.33;;;0.80;99.90;;;;;;5065536;28;20453;-53
2022/12/09 11:57:51;;;;;;;49.57;26.07;;;0.80;99.90;;;;;;5067978;28;20506;-55
2022/12/09 12:00:21;;;;;;;45.67;25.20;;;0.80;99.90;;;;;;5063458;28;20481;-54
2022/12/09 12:02:54;;;;;;;45.80;28.10;;;0.70;99.90;;;;;;5065865;28;20464;-54
2022/12/09 12:05:23;;;;;;;43.40;26.57;;;0.80;99.90;;;;;;5067894;28;20871;-54
2022/12/09 12:07:58;;;;;;;47.57;28.47;;;0.80;99.90;;;;;;5052372;28;20472;-55
2022/12/09 12:10:31;;;;;;;48.23;28.10;;;0.80;99.90;;;;;;5062584;28;20476;-54
2022/12/09 12:13:05;;;;;;;52.33;27.07;;;0.80;99.90;;;;;;5070263;28;20461;-54
2022/12/09 12:15:40;;;;;;;43.50;27.30;;;0.80;99.90;;;;;;5062503;28;20453;-54
2022/12/09 12:18:13;;;;;;;40.77;26.53;;;0.90;99.90;;;;;;5066864;28;20490;-54
2022/12/09 12:21:00;;;;;;;42.53;24.70;;;0.80;99.90;;;;;;5066362;28;20481;-54
2022/12/09 12:23:38;;;;;;;42.97;26.30;;;0.80;99.90;;;;;;5058946;28;20481;-54
2022/12/09 12:26:16;;;;;;;43.93;25.13;;;0.80;99.90;;;;;;5064512;28;21007;-55
2022/12/09 12:28:52;;;;;;;47.20;27.07;;;0.80;99.90;;;;;;5062881;28;20464;-55
2022/12/09 12:31:39;;;;;;;44.17;25.40;;;0.80;99.90;;;;;;5057230;28;21002;-56
2022/12/09 12:34:16;;;;;;;46.13;25.70;;;0.80;99.90;;;;;;5047551;28;20951;-55
2022/12/09 12:36:51;;;;;;;47.77;26.20;;;0.90;99.90;;;;;;5047226;28;20520;-54
2022/12/09 12:39:30;;;;;;;46.83;26.93;;;0.90;99.90;;;;;;5054098;28;20457;-55
2022/12/09 12:42:08;;;;;;;41.60;25.40;;;0.90;99.90;;;;;;5049279;28;20481;-54
2022/12/09 12:47:33;;;;;;;41.17;24.60;;;0.90;99.90;;;;;;5055273;28;20970;-54